Time;durP1;ratioP1;P1;durP2;ratioP2;P2;SDS_P1;SDS_P2;PMS_P1;PMS_P2;Temp;Humidity;BMP_temperature;BMP_pressure;BME280_temperature;BME280_humidity;BME280_pressure;Samples;Min_cycle;Max_cycle;Signal;HPM_P1;HPM_P2
2023/06/28 00:01:02;;;;;;;2.25;1.90;;;;;;;16.80;100.00;97747.63;1711221;75;674312;-72
2023/06/28 00:03:33;;;;;;;2.00;1.70;;;;;;;16.83;100.00;97757.66;1702391;75;673175;-73
2023/06/28 00:06:03;;;;;;;2.70;2.15;;;;;;;16.65;100.00;97742.44;1710517;75;675156;-73
2023/06/28 00:08:36;;;;;;;1.70;1.60;;;;;;;16.91;100.00;97739.25;1702983;75;680565;-72
2023/06/28 00:11:06;;;;;;;2.15;1.85;;;;;;;16.82;100.00;97743.06;1710849;75;672649;-72
2023/06/28 00:13:37;;;;;;;1.90;1.70;;;;;;;16.85;100.00;97749.59;1701321;75;742666;-73
2023/06/28 00:16:07;;;;;;;1.60;1.50;;;;;;;16.85;100.00;97746.09;1709582;75;790123;-71
2023/06/28 00:18:37;;;;;;;1.90;1.70;;;;;;;16.85;100.00;97738.53;1702941;75;681439;-73
2023/06/28 00:21:08;;;;;;;1.60;1.50;;;;;;;17.00;100.00;97738.13;1710645;75;671598;-72
2023/06/28 00:23:40;;;;;;;2.95;1.90;;;;;;;16.81;100.00;97729.75;1702732;75;693734;-75
2023/06/28 00:26:11;;;;;;;2.40;2.00;;;;;;;16.62;100.00;97724.13;1710783;75;688584;-71
2023/06/28 00:28:41;;;;;;;2.35;2.15;;;;;;;16.55;100.00;97724.69;1702983;75;675189;-72
2023/06/28 00:31:11;;;;;;;2.10;2.00;;;;;;;16.61;100.00;97725.38;1710111;75;707470;-72
2023/06/28 00:33:41;;;;;;;2.40;2.10;;;;;;;16.75;100.00;97720.75;1702873;75;677583;-73
2023/06/28 00:36:11;;;;;;;2.40;2.20;;;;;;;16.68;100.00;97713.03;1710815;75;675124;-72
2023/06/28 00:38:44;;;;;;;2.80;2.60;;;;;;;16.52;100.00;97706.38;1702498;75;677387;-71
2023/06/28 00:41:14;;;;;;;2.80;2.50;;;;;;;16.58;100.00;97710.59;1710563;75;678068;-70
2023/06/28 00:43:45;;;;;;;2.90;2.50;;;;;;;16.63;100.00;97700.75;1702190;75;744711;-73
2023/06/28 00:46:15;;;;;;;2.00;1.80;;;;;;;16.60;100.00;97715.59;1711103;75;679658;-73
2023/06/28 00:48:45;;;;;;;2.85;2.20;;;;;;;16.74;100.00;97722.78;1701782;75;750510;-71
2023/06/28 00:51:15;;;;;;;2.50;2.30;;;;;;;16.70;100.00;97719.53;1711263;75;677123;-74
2023/06/28 00:53:49;;;;;;;2.10;1.90;;;;;;;16.68;100.00;97713.03;1703052;75;765991;-74
2023/06/28 00:56:19;;;;;;;1.75;1.65;;;;;;;16.79;100.00;97710.94;1709614;75;861744;-73
2023/06/28 00:58:49;;;;;;;2.35;2.15;;;;;;;16.51;100.00;97708.38;1703077;75;735116;-72
2023/06/28 01:01:20;;;;;;;2.00;1.80;;;;;;;16.77;100.00;97702.38;1710967;75;698274;-70
2023/06/28 01:03:53;;;;;;;2.30;2.05;;;;;;;16.84;100.00;97706.63;1702051;75;757983;-73
2023/06/28 01:06:24;;;;;;;2.55;2.15;;;;;;;16.54;100.00;97703.84;1710713;75;680414;-71
2023/06/28 01:08:57;;;;;;;2.20;2.00;;;;;;;16.66;100.00;97701.72;1701691;75;743062;-71
2023/06/28 01:11:28;;;;;;;1.95;1.85;;;;;;;16.56;100.00;97709.59;1710558;75;673457;-76
2023/06/28 01:13:59;;;;;;;1.95;1.75;;;;;;;16.57;100.00;97709.09;1701912;75;769823;-73
2023/06/28 01:16:31;;;;;;;3.30;2.30;;;;;;;16.39;100.00;97710.47;1710978;75;675408;-75
2023/06/28 01:19:03;;;;;;;2.30;2.10;;;;;;;16.42;100.00;97708.69;1700664;75;791987;-72
2023/06/28 01:21:39;;;;;;;2.40;2.20;;;;;;;16.51;100.00;97691.06;1710735;75;674935;-72
2023/06/28 01:24:13;;;;;;;2.50;2.30;;;;;;;16.54;100.00;97701.06;1701371;75;753032;-75
2023/06/28 01:26:44;;;;;;;2.10;1.90;;;;;;;16.59;100.00;97703.78;1710257;75;729380;-73
2023/06/28 01:29:14;;;;;;;2.20;2.00;;;;;;;16.81;100.00;97713.94;1702018;75;758796;-72
2023/06/28 01:31:44;;;;;;;2.35;1.90;;;;;;;16.71;100.00;97718.25;1711097;75;675997;-73
2023/06/28 01:34:14;;;;;;;2.55;2.30;;;;;;;16.63;100.00;97719.34;1701707;75;743763;-74
2023/06/28 01:36:44;;;;;;;2.55;2.05;;;;;;;16.82;100.00;97728.50;1711031;75;680352;-71
2023/06/28 01:39:19;;;;;;;2.10;1.90;;;;;;;16.76;100.00;97728.53;1701853;75;719350;-74
2023/06/28 01:41:50;;;;;;;4.70;3.70;;;;;;;16.46;100.00;97734.06;1710995;75;680186;-73
2023/06/28 01:44:20;;;;;;;3.45;3.15;;;;;;;16.70;100.00;97729.84;1702053;75;749920;-72
2023/06/28 01:46:53;;;;;;;3.40;2.50;;;;;;;16.64;100.00;97731.91;1710322;75;682936;-71
2023/06/28 01:49:25;;;;;;;3.25;2.95;;;;;;;16.64;100.00;97729.88;1702192;75;755692;-74
2023/06/28 01:51:56;;;;;;;2.80;2.50;;;;;;;16.48;100.00;97728.75;1710717;75;675838;-70
2023/06/28 01:54:32;;;;;;;3.00;2.70;;;;;;;16.72;100.00;97738.38;1701890;75;757296;-70
2023/06/28 01:57:02;;;;;;;3.75;2.80;;;;;;;16.57;100.00;97738.72;1702315;75;672398;-70
2023/06/28 01:59:33;;;;;;;3.30;2.70;;;;;;;16.79;100.00;97732.31;1710824;75;673472;-75
2023/06/28 02:02:03;;;;;;;4.00;3.55;;;;;;;16.31;100.00;97719.84;1703010;75;671103;-72
2023/06/28 02:04:33;;;;;;;3.65;3.35;;;;;;;16.35;100.00;97723.06;1710720;75;675379;-72
2023/06/28 02:07:03;;;;;;;3.50;3.20;;;;;;;16.39;100.00;97718.78;1701964;75;693758;-75
2023/06/28 02:09:36;;;;;;;3.40;2.70;;;;;;;16.53;100.00;97721.69;1710887;75;670527;-75
2023/06/28 02:12:07;;;;;;;3.70;3.10;;;;;;;16.43;100.00;97712.22;1702718;75;685113;-72
2023/06/28 02:14:39;;;;;;;4.30;3.90;;;;;;;16.25;100.00;97713.59;1710594;75;672161;-70
2023/06/28 02:17:13;;;;;;;5.50;3.60;;;;;;;16.35;100.00;97715.53;1690710;75;1702138;-75
2023/06/28 02:19:44;;;;;;;3.60;3.20;;;;;;;16.53;100.00;97710.63;1710690;75;682146;-73
2023/06/28 02:22:14;;;;;;;2.70;2.45;;;;;;;16.66;100.00;97723.84;1702573;75;688186;-72
2023/06/28 02:24:47;;;;;;;2.50;2.30;;;;;;;16.73;100.00;97712.22;1710770;75;671334;-74
2023/06/28 02:27:17;;;;;;;3.40;3.10;;;;;;;16.56;100.00;97717.91;1701055;67;828551;-72
2023/06/28 02:29:47;;;;;;;4.25;3.85;;;;;;;16.54;100.00;97725.94;1710581;75;688579;-73
2023/06/28 02:32:18;;;;;;;4.50;2.90;;;;;;;16.76;100.00;97736.84;1702888;75;685938;-71
2023/06/28 02:34:48;;;;;;;4.85;3.60;;;;;;;16.54;100.00;97737.75;1710601;75;678087;-72
2023/06/28 02:37:18;;;;;;;3.40;3.10;;;;;;;16.75;100.00;97737.34;1702959;75;673923;-71
2023/06/28 02:39:51;;;;;;;2.95;2.65;;;;;;;16.86;100.00;97728.97;1710210;75;740061;-73
2023/06/28 02:42:21;;;;;;;3.00;2.70;;;;;;;16.86;100.00;97737.28;1702955;75;685753;-71
2023/06/28 02:44:51;;;;;;;2.60;2.40;;;;;;;16.95;100.00;97739.69;1710539;75;678767;-71
2023/06/28 02:47:21;;;;;;;2.85;2.40;;;;;;;16.74;100.00;97747.66;1702887;75;673175;-71
2023/06/28 02:49:51;;;;;;;4.65;3.60;;;;;;;16.37;100.00;97748.91;1697010;75;1843483;-71
2023/06/28 02:52:22;;;;;;;8.60;4.40;;;;;;;16.25;100.00;97747.50;1702888;75;676009;-73
2023/06/28 02:54:55;;;;;;;4.75;4.25;;;;;;;16.06;100.00;97755.63;1711100;75;671524;-71
2023/06/28 02:57:25;;;;;;;8.80;5.35;;;;;;;15.99;100.00;97747.91;1702882;75;675447;-73
2023/06/28 02:59:55;;;;;;;5.85;5.25;;;;;;;16.02;100.00;97763.47;1710740;75;678928;-72
2023/06/28 03:02:25;;;;;;;5.20;3.80;;;;;;;16.03;100.00;97753.91;1702907;75;680997;-72
2023/06/28 03:04:56;;;;;;;4.20;3.60;;;;;;;16.17;100.00;97763.88;1710898;75;668567;-73
2023/06/28 03:07:26;;;;;;;3.20;2.90;;;;;;;16.34;100.00;97772.06;1702486;75;692375;-70
2023/06/28 03:09:58;;;;;;;3.75;3.40;;;;;;;16.32;100.00;97779.34;1710872;75;676246;-72
2023/06/28 03:12:29;;;;;;;4.25;3.85;;;;;;;16.10;100.00;97774.72;1702149;75;733852;-74
2023/06/28 03:14:59;;;;;;;5.80;5.00;;;;;;;15.97;100.00;97767.75;1710703;75;695106;-72
2023/06/28 03:17:29;;;;;;;4.05;3.65;;;;;;;16.03;100.00;97772.50;1701257;75;750109;-74
2023/06/28 03:20:00;;;;;;;3.45;3.15;;;;;;;16.29;100.00;97766.56;1710949;75;671609;-72
2023/06/28 03:22:30;;;;;;;3.85;3.00;;;;;;;16.46;100.00;97775.50;1701703;75;751853;-71
2023/06/28 03:25:03;;;;;;;3.05;2.80;;;;;;;16.46;100.00;97775.50;1710663;75;674687;-74
2023/06/28 03:27:33;;;;;;;3.40;3.10;;;;;;;16.37;100.00;97773.78;1701427;75;759899;-72
2023/06/28 03:30:03;;;;;;;3.50;2.85;;;;;;;16.27;100.00;97780.88;1711199;75;669904;-69
2023/06/28 03:32:33;;;;;;;5.45;3.60;;;;;;;16.27;100.00;97775.38;1701508;75;771059;-73
2023/06/28 03:35:03;;;;;;;5.10;4.60;;;;;;;16.16;100.00;97776.19;1710606;75;679762;-72
2023/06/28 03:37:34;;;;;;;4.75;4.25;;;;;;;16.19;100.00;97777.94;1701602;75;749146;-73
2023/06/28 03:40:08;;;;;;;4.10;3.70;;;;;;;16.41;100.00;97776.28;1710627;75;676939;-75
2023/06/28 03:42:38;;;;;;;4.65;4.25;;;;;;;16.26;100.00;97771.13;1701630;75;746296;-70
2023/06/28 03:45:10;;;;;;;3.70;3.40;;;;;;;16.39;100.00;97793.38;1710931;75;697390;-76
2023/06/28 03:47:41;;;;;;;3.85;2.65;;;;;;;16.30;100.00;97781.88;1702815;75;742982;-72
2023/06/28 03:50:12;;;;;;;3.30;2.30;;;;;;;15.97;100.00;97792.59;1711417;75;687573;-73
2023/06/28 03:52:42;;;;;;;2.75;2.40;;;;;;;15.92;100.00;97803.66;1702240;75;740226;-71
2023/06/28 03:55:16;;;;;;;2.30;1.90;;;;;;;15.86;100.00;97798.16;1710648;75;704368;-71
2023/06/28 03:57:46;;;;;;;1.95;1.75;;;;;;;15.93;100.00;97802.41;1702065;75;746528;-74
2023/06/28 04:00:17;;;;;;;1.70;1.60;;;;;;;15.82;100.00;97808.72;1710450;75;684420;-75
2023/06/28 04:02:47;;;;;;;1.95;1.75;;;;;;;15.92;100.00;97817.47;1702311;75;754684;-72
2023/06/28 04:05:18;;;;;;;2.50;1.55;;;;;;;15.60;100.00;97826.06;1711123;75;682774;-74
2023/06/28 04:07:58;;;;;;;2.75;1.90;;;;;;;15.19;100.00;97834.91;1702397;75;746386;-72
2023/06/28 04:10:31;;;;;;;3.95;2.10;;;;;;;15.05;100.00;97833.16;1702819;75;681820;-75
2023/06/28 04:13:01;;;;;;;2.60;1.60;;;;;;;15.03;100.00;97836.44;1711163;75;678700;-73
2023/06/28 04:15:31;;;;;;;3.40;2.20;;;;;;;14.77;100.00;97839.44;1703193;75;676559;-74
2023/06/28 04:18:01;;;;;;;2.20;1.70;;;;;;;14.75;100.00;97843.94;1710790;75;708045;-71
2023/06/28 04:20:32;;;;;;;2.40;1.40;;;;;;;14.85;100.00;97847.97;1699869;75;942737;-72
2023/06/28 04:23:02;;;;;;;3.00;2.00;;;;;;;14.79;100.00;97844.44;1711417;75;676749;-74
2023/06/28 04:25:37;;;;;;;2.20;1.50;;;;;;;14.99;100.00;97860.75;1702748;75;676807;-76
2023/06/28 04:28:07;;;;;;;1.75;1.40;;;;;;;14.78;100.00;97862.97;1710652;75;680841;-73
2023/06/28 04:30:38;;;;;;;1.90;1.70;;;;;;;14.70;100.00;97865.47;1702436;75;679423;-77
2023/06/28 04:33:08;;;;;;;2.80;1.90;;;;;;;14.81;100.00;97869.50;1710317;75;707131;-74
2023/06/28 04:35:38;;;;;;;1.80;1.40;;;;;;;14.83;100.00;97876.00;1702129;75;722428;-72
2023/06/28 04:38:10;;;;;;;1.90;1.50;;;;;;;14.69;100.00;97879.75;1710392;75;677967;-72
2023/06/28 04:40:42;;;;;;;2.05;1.50;;;;;;;14.76;100.00;97884.03;1702388;75;689970;-74
2023/06/28 04:43:13;;;;;;;1.60;1.20;;;;;;;14.81;100.00;97875.00;1710605;75;674261;-74
2023/06/28 04:45:44;;;;;;;1.30;1.00;;;;;;;15.18;100.00;97885.81;1702842;75;673278;-70
2023/06/28 04:48:14;;;;;;;1.90;1.50;;;;;;;15.00;100.00;97883.56;1710964;75;679574;-73
2023/06/28 04:50:48;;;;;;;2.00;1.50;;;;;;;15.13;100.00;97892.84;1703131;75;678943;-75
2023/06/28 04:53:18;;;;;;;2.10;1.30;;;;;;;15.17;100.00;97886.31;1710795;75;672062;-74
2023/06/28 04:55:51;;;;;;;2.65;1.50;;;;;;;15.19;100.00;97870.03;1702698;75;751359;-74
2023/06/28 04:58:22;;;;;;;2.50;1.60;;;;;;;14.88;100.00;97882.78;1711656;75;672280;-71
2023/06/28 05:00:56;;;;;;;1.35;1.10;;;;;;;14.93;100.00;97884.78;1702496;75;729371;-73
2023/06/28 05:03:28;;;;;;;2.70;1.50;;;;;;;15.09;100.00;97895.09;1710684;75;696651;-73
2023/06/28 05:05:58;;;;;;;1.60;1.10;;;;;;;15.10;100.00;97887.56;1701938;75;741647;-72
2023/06/28 05:08:28;;;;;;;1.50;1.30;;;;;;;14.93;100.00;97884.78;1710312;75;669956;-74
2023/06/28 05:11:01;;;;;;;3.60;1.45;;;;;;;15.08;100.00;97879.03;1700671;75;809409;-72
2023/06/28 05:13:31;;;;;;;2.30;1.50;;;;;;;15.08;100.00;97884.53;1711051;75;676395;-71
2023/06/28 05:16:01;;;;;;;2.45;1.50;;;;;;;15.14;100.00;97893.59;1701590;75;742738;-73
2023/06/28 05:18:33;;;;;;;1.05;0.85;;;;;;;15.29;100.00;97888.56;1710752;75;683221;-72
2023/06/28 05:21:03;;;;;;;2.45;1.90;;;;;;;14.69;100.00;97885.25;1701974;75;752593;-74
2023/06/28 05:23:33;;;;;;;2.85;1.90;;;;;;;14.39;100.00;97893.16;1710895;75;674993;-72
2023/06/28 05:26:06;;;;;;;3.00;1.65;;;;;;;14.49;100.00;97900.72;1702148;75;752583;-71
2023/06/28 05:28:36;;;;;;;1.80;1.50;;;;;;;14.58;100.00;97901.78;1711171;75;672562;-73
2023/06/28 05:31:06;;;;;;;3.00;1.50;;;;;;;14.61;100.00;97909.03;1700613;75;802614;-71
2023/06/28 05:33:37;;;;;;;2.55;1.60;;;;;;;14.53;100.00;97911.50;1710844;75;686437;-73
2023/06/28 05:36:08;;;;;;;4.40;2.45;;;;;;;14.32;100.00;97899.16;1701725;75;743081;-72
2023/06/28 05:38:38;;;;;;;2.80;2.10;;;;;;;14.37;100.00;97888.16;1710714;75;680442;-72
2023/06/28 05:41:21;;;;;;;4.10;2.30;;;;;;;14.37;100.00;97898.41;1700657;75;808208;-72
2023/06/28 05:43:51;;;;;;;2.90;2.30;;;;;;;14.52;100.00;97898.22;1702443;75;715836;-70
2023/06/28 05:46:21;;;;;;;4.20;2.60;;;;;;;14.49;100.00;97903.47;1710404;75;677511;-72
2023/06/28 05:48:54;;;;;;;4.20;2.50;;;;;;;14.64;100.00;97899.78;1702377;75;674064;-71
2023/06/28 05:51:24;;;;;;;4.20;2.50;;;;;;;14.46;100.00;97887.94;1710508;75;677920;-71
2023/06/28 05:53:54;;;;;;;4.40;2.80;;;;;;;14.48;100.00;97893.72;1701731;75;758812;-75
2023/06/28 05:56:30;;;;;;;5.80;3.60;;;;;;;14.69;100.00;97874.22;1711139;75;669814;-73
2023/06/28 05:59:00;;;;;;;5.20;2.70;;;;;;;14.79;100.00;97872.00;1700996;75;839172;-74
2023/06/28 06:01:32;;;;;;;2.90;2.10;;;;;;;15.14;100.00;97888.06;1708369;75;870236;-73
2023/06/28 06:04:02;;;;;;;3.50;2.40;;;;;;;14.79;100.00;97886.53;1702490;75;676022;-72
2023/06/28 06:06:32;;;;;;;5.40;2.80;;;;;;;14.74;100.00;97884.50;1710917;75;673595;-73
2023/06/28 06:09:02;;;;;;;3.80;2.50;;;;;;;14.79;100.00;97891.28;1702192;75;677280;-75
2023/06/28 06:11:36;;;;;;;3.20;2.40;;;;;;;15.00;100.00;97889.81;1710762;75;674109;-71
2023/06/28 06:14:06;;;;;;;4.90;3.00;;;;;;;14.46;100.00;97904.47;1702801;75;676973;-72
2023/06/28 06:16:36;;;;;;;4.10;2.90;;;;;;;14.59;100.00;97906.78;1710941;75;673167;-73
2023/06/28 06:19:06;;;;;;;3.60;2.40;;;;;;;14.68;100.00;97897.53;1702839;75;674252;-71
2023/06/28 06:21:36;;;;;;;4.80;2.90;;;;;;;14.58;100.00;97891.50;1710877;75;679572;-73
2023/06/28 06:24:09;;;;;;;5.25;2.90;;;;;;;14.85;100.00;97897.56;1702685;75;675555;-72
2023/06/28 06:26:42;;;;;;;6.20;2.80;;;;;;;14.90;100.00;97903.09;1710806;75;679983;-73
2023/06/28 06:29:12;;;;;;;4.50;2.95;;;;;;;14.84;100.00;97902.34;1701955;75;758582;-71
2023/06/28 06:31:42;;;;;;;6.05;3.00;;;;;;;14.86;100.00;97890.78;1710464;75;673104;-74
2023/06/28 06:34:12;;;;;;;6.50;2.85;;;;;;;15.06;100.00;97898.09;1701376;75;747747;-72
2023/06/28 06:36:43;;;;;;;4.10;2.40;;;;;;;14.86;100.00;97901.81;1710898;75;676905;-72
2023/06/28 06:39:13;;;;;;;3.95;2.60;;;;;;;14.68;100.00;97908.56;1700856;75;758517;-75
2023/06/28 06:41:46;;;;;;;4.40;3.00;;;;;;;14.57;100.00;97914.03;1710815;75;673346;-72
2023/06/28 06:44:16;;;;;;;3.70;2.70;;;;;;;14.51;100.00;97907.75;1702291;75;746324;-72
2023/06/28 06:46:46;;;;;;;3.70;2.55;;;;;;;14.69;100.00;97907.31;1709545;75;793878;-72
2023/06/28 06:49:18;;;;;;;6.30;2.95;;;;;;;14.85;100.00;97911.34;1701917;75;751082;-72
2023/06/28 06:51:49;;;;;;;5.20;3.10;;;;;;;14.97;100.00;97906.59;1710781;75;680760;-70
2023/06/28 06:54:19;;;;;;;4.30;2.80;;;;;;;15.09;100.00;97902.59;1701648;75;746362;-74
2023/06/28 06:56:52;;;;;;;4.15;2.50;;;;;;;15.30;100.00;97903.88;1710835;75;675643;-74
2023/06/28 06:59:23;;;;;;;5.90;2.90;;;;;;;15.19;100.00;97903.13;1701550;75;758624;-72
2023/06/28 07:01:53;;;;;;;4.05;2.95;;;;;;;15.38;100.00;97906.13;1710834;75;672540;-73
2023/06/28 07:04:24;;;;;;;3.90;2.95;;;;;;;15.51;100.00;97909.13;1702540;75;720647;-71
2023/06/28 07:06:55;;;;;;;4.70;3.60;;;;;;;15.63;100.00;97907.09;1709152;75;823974;-73
2023/06/28 07:09:26;;;;;;;5.20;2.75;;;;;;;15.79;100.00;97897.31;1702021;75;731769;-74
2023/06/28 07:11:59;;;;;;;2.40;2.00;;;;;;;16.10;100.00;97912.81;1710906;75;672163;-75
2023/06/28 07:14:29;;;;;;;4.20;2.50;;;;;;;16.23;100.00;97898.44;1677896;75;2690095;-74
2023/06/28 07:16:59;;;;;;;4.10;2.55;;;;;;;15.95;100.00;97899.28;1710927;75;674460;-71
2023/06/28 07:19:29;;;;;;;3.80;2.65;;;;;;;16.21;100.00;97900.94;1700707;75;772374;-72
2023/06/28 07:22:00;;;;;;;3.75;2.40;;;;;;;16.30;100.00;97912.47;1710767;75;671145;-71
2023/06/28 07:24:30;;;;;;;5.35;2.65;;;;;;;16.27;100.00;97909.97;1700833;75;772603;-70
2023/06/28 07:27:03;;;;;;;3.00;2.15;;;;;;;16.50;100.00;97908.63;1710153;75;678547;-73
2023/06/28 07:29:33;;;;;;;2.70;2.45;;;;;;;16.42;100.00;97909.66;1701406;75;754050;-73
2023/06/28 07:32:03;;;;;;;2.80;2.50;;;;;;;16.60;100.00;97904.31;1710303;75;671053;-70
2023/06/28 07:34:33;;;;;;;4.05;2.65;;;;;;;16.34;100.00;97906.69;1701759;75;746579;-71
2023/06/28 07:37:05;;;;;;;3.45;2.40;;;;;;;16.57;100.00;97905.31;1710840;75;670257;-71
2023/06/28 07:39:37;;;;;;;3.20;2.30;;;;;;;16.76;100.00;97910.22;1699695;75;809869;-74
2023/06/28 07:42:12;;;;;;;4.60;2.50;;;;;;;16.57;100.00;97905.31;1710437;75;692550;-74
2023/06/28 07:44:42;;;;;;;2.95;2.10;;;;;;;16.86;100.00;97903.19;1701904;75;734325;-71
2023/06/28 07:47:13;;;;;;;5.20;2.20;;;;;;;17.06;100.00;97904.06;1710253;75;688418;-74
2023/06/28 07:49:43;;;;;;;2.60;1.95;;;;;;;16.99;100.00;97906.09;1701555;75;743793;-75
2023/06/28 07:52:13;;;;;;;1.90;1.70;;;;;;;16.70;100.00;97904.00;1710751;75;679387;-73
2023/06/28 07:54:44;;;;;;;3.05;1.85;;;;;;;16.96;93.47;97906.38;1701745;75;747551;-72
2023/06/28 07:57:16;;;;;;;1.85;1.35;;;;;;;17.11;89.04;97894.97;1710819;75;682659;-72
2023/06/28 07:59:46;;;;;;;2.05;1.40;;;;;;;17.21;93.41;97893.38;1701339;75;744624;-75
2023/06/28 08:02:17;;;;;;;3.30;2.00;;;;;;;17.21;99.45;97887.84;1710772;75;676656;-76
2023/06/28 08:04:48;;;;;;;2.20;1.60;;;;;;;17.31;92.94;97880.69;1701061;75;758617;-74
2023/06/28 08:07:18;;;;;;;1.40;1.10;;;;;;;17.56;96.16;97878.72;1711120;75;675929;-72
2023/06/28 08:09:48;;;;;;;1.20;1.00;;;;;;;17.74;92.70;97871.75;1701723;75;753881;-75
2023/06/28 08:12:21;;;;;;;1.90;1.20;;;;;;;17.82;88.43;97875.47;1710912;75;681946;-72
2023/06/28 08:14:51;;;;;;;2.80;1.10;;;;;;;17.99;80.48;97872.53;1702227;75;737691;-72
2023/06/28 08:17:21;;;;;;;1.40;1.10;;;;;;;17.68;84.50;97879.38;1697831;75;1825165;-74
2023/06/28 08:19:52;;;;;;;1.90;1.00;;;;;;;17.98;84.37;97876.53;1698924;75;979263;-74
2023/06/28 08:22:22;;;;;;;0.95;0.85;;;;;;;17.92;85.38;97875.88;1711262;75;678540;-76
2023/06/28 08:24:52;;;;;;;1.55;1.05;;;;;;;17.85;80.22;97871.66;1702385;75;740829;-73
2023/06/28 08:27:25;;;;;;;1.30;0.80;;;;;;;18.16;81.82;97866.00;1711087;75;673770;-74
2023/06/28 08:29:55;;;;;;;1.75;1.00;;;;;;;18.32;77.89;97862.28;1701923;75;751035;-71
2023/06/28 08:32:26;;;;;;;1.45;1.10;;;;;;;18.35;77.45;97863.25;1710593;75;707250;-74
2023/06/28 08:34:56;;;;;;;1.75;0.70;;;;;;;18.51;76.10;97856.75;1702019;75;758241;-73
2023/06/28 08:37:26;;;;;;;1.40;0.90;;;;;;;18.27;74.13;97854.78;1710852;75;677889;-72
2023/06/28 08:39:58;;;;;;;1.90;0.70;;;;;;;18.55;73.67;97848.88;1702284;75;748075;-72
2023/06/28 08:42:34;;;;;;;1.00;0.80;;;;;;;18.82;74.33;97841.44;1710824;75;672773;-75
2023/06/28 08:45:07;;;;;;;0.80;0.65;;;;;;;18.16;69.67;97846.63;1701162;75;743854;-74
2023/06/28 08:47:38;;;;;;;1.30;1.10;;;;;;;18.05;67.35;97853.06;1710387;75;676009;-73
2023/06/28 08:50:10;;;;;;;1.30;0.85;;;;;;;18.65;69.71;97847.22;1701697;75;754727;-76
2023/06/28 08:52:42;;;;;;;1.00;0.90;;;;;;;18.96;71.22;97841.50;1710205;75;674224;-74
2023/06/28 08:55:13;;;;;;;2.25;0.70;;;;;;;19.05;69.60;97836.31;1701924;75;756244;-73
2023/06/28 08:57:47;;;;;;;1.35;0.80;;;;;;;18.98;74.05;97841.72;1710586;75;676160;-75
2023/06/28 09:00:19;;;;;;;0.85;0.80;;;;;;;19.28;73.55;97827.59;1701782;75;745874;-73
2023/06/28 09:02:50;;;;;;;2.70;1.20;;;;;;;19.35;69.01;97833.25;1710731;75;675959;-72
2023/06/28 09:05:21;;;;;;;2.90;1.20;;;;;;;18.99;67.79;97832.13;1701383;75;766811;-73
2023/06/28 09:07:53;;;;;;;1.40;0.90;;;;;;;19.20;65.84;97824.69;1710781;75;669052;-76
2023/06/28 09:10:24;;;;;;;0.80;0.80;;;;;;;19.40;67.36;97826.13;1698297;75;963054;-74
2023/06/28 09:12:57;;;;;;;1.35;0.95;;;;;;;19.67;65.48;97826.13;1709863;75;689365;-73
2023/06/28 09:15:28;;;;;;;1.10;0.90;;;;;;;19.94;64.94;97826.88;1700631;75;764049;-72
2023/06/28 09:17:58;;;;;;;0.75;0.65;;;;;;;20.16;66.15;97825.72;1710506;75;678162;-75
2023/06/28 09:20:28;;;;;;;1.65;0.70;;;;;;;19.79;64.44;97816.31;1701875;75;748698;-74
2023/06/28 09:22:59;;;;;;;1.65;1.00;;;;;;;19.30;63.00;97811.91;1710460;75;682769;-76
2023/06/28 09:25:32;;;;;;;1.05;0.75;;;;;;;19.73;63.36;97802.56;1701602;75;755735;-74
2023/06/28 09:28:05;;;;;;;1.20;0.90;;;;;;;20.13;62.98;97804.53;1710500;75;680794;-74
2023/06/28 09:30:38;;;;;;;2.00;1.10;;;;;;;20.27;61.78;97814.34;1701295;75;751066;-76
2023/06/28 09:33:09;;;;;;;1.40;0.90;;;;;;;20.02;61.51;97805.53;1699451;75;1694476;-74
2023/06/28 09:35:40;;;;;;;1.10;0.85;;;;;;;20.03;60.63;97801.44;1701897;75;763191;-75
2023/06/28 09:38:11;;;;;;;0.60;0.60;;;;;;;20.16;60.96;97798.66;1711482;75;686943;-75
2023/06/28 09:40:41;;;;;;;2.75;0.80;;;;;;;20.24;60.36;97803.56;1702448;75;736769;-74
2023/06/28 09:43:18;;;;;;;1.35;0.80;;;;;;;20.10;57.16;97794.50;1710936;75;684762;-72
2023/06/28 09:45:48;;;;;;;1.00;0.70;;;;;;;20.19;57.22;97792.00;1701783;75;753345;-74
2023/06/28 09:48:18;;;;;;;2.80;0.80;;;;;;;20.68;58.68;97787.91;1710864;75;684725;-73
2023/06/28 09:50:49;;;;;;;1.50;0.90;;;;;;;20.84;58.58;97791.59;1701827;75;735023;-75
2023/06/28 09:53:22;;;;;;;1.95;0.65;;;;;;;20.65;59.32;97791.78;1709694;75;693994;-75
2023/06/28 09:55:53;;;;;;;1.05;0.75;;;;;;;21.19;57.95;97787.44;1700857;75;748481;-74
2023/06/28 09:58:30;;;;;;;2.45;0.60;;;;;;;21.21;57.96;97779.28;1709934;75;688387;-75
2023/06/28 10:01:02;;;;;;;1.70;1.10;;;;;;;20.74;56.15;97782.22;1699677;75;824156;-72
2023/06/28 10:03:33;;;;;;;1.10;0.80;;;;;;;21.07;56.86;97780.66;1710546;75;692118;-75
2023/06/28 10:06:04;;;;;;;1.55;0.90;;;;;;;20.83;55.39;97785.28;1701303;75;752047;-74
2023/06/28 10:08:35;;;;;;;1.20;0.80;;;;;;;21.06;54.52;97782.66;1710137;75;672259;-75
2023/06/28 10:11:11;;;;;;;0.70;0.50;;;;;;;21.57;55.32;97778.59;1700888;75;803186;-73
2023/06/28 10:13:45;;;;;;;0.50;0.50;;;;;;;21.55;54.49;97772.84;1700527;75;785581;-72
2023/06/28 10:16:21;;;;;;;1.95;0.90;;;;;;;21.35;54.43;97784.75;1710662;75;676027;-76
2023/06/28 10:18:51;;;;;;;;;;;;;;;20.58;54.18;97776.50;1686363;75;1980731;-74
2023/06/28 10:21:22;;;;;;;1.80;0.80;;;;;;;20.90;55.32;97778.28;1710188;75;673453;-75
2023/06/28 10:23:52;;;;;;;1.00;0.70;;;;;;;21.12;55.72;97774.19;1702502;75;672657;-74
2023/06/28 10:26:24;;;;;;;1.85;0.80;;;;;;;21.05;54.99;97777.66;1710126;75;675829;-76
2023/06/28 10:28:58;;;;;;;1.30;0.70;;;;;;;21.78;53.72;97777.78;1702284;75;674894;-74
2023/06/28 10:31:28;;;;;;;1.05;0.55;;;;;;;21.36;52.94;97772.28;1709265;75;672781;-72
2023/06/28 10:33:59;;;;;;;1.30;0.90;;;;;;;21.86;53.20;97775.75;1700197;75;876616;-76
2023/06/28 10:36:30;;;;;;;1.30;0.60;;;;;;;22.12;53.11;97783.13;1710737;75;673322;-75
2023/06/28 10:39:01;;;;;;;0.90;0.70;;;;;;;21.72;51.77;97768.81;1700162;75;878390;-75
2023/06/28 10:41:31;;;;;;;0.80;0.50;;;;;;;22.82;52.74;97762.47;1708400;75;852893;-74
2023/06/28 10:44:11;;;;;;;1.35;0.70;;;;;;;22.48;50.99;97751.63;1702189;75;674880;-73
2023/06/28 10:46:41;;;;;;;0.70;0.70;;;;;;;22.76;50.87;97759.13;1689052;75;1713359;-72
2023/06/28 10:49:12;;;;;;;0.70;0.60;;;;;;;23.04;51.08;97755.44;1709647;75;683879;-73
2023/06/28 10:51:47;;;;;;;1.00;0.70;;;;;;;22.25;51.57;97757.91;1702154;75;677305;-72
2023/06/28 10:54:17;;;;;;;1.70;0.90;;;;;;;22.68;50.69;97764.69;1710631;75;670131;-76
2023/06/28 10:56:55;;;;;;;3.40;0.70;;;;;;;22.49;51.21;97762.25;1702680;75;677783;-76
2023/06/28 10:59:29;;;;;;;;;;;;;;;22.65;52.04;97760.22;1708235;75;871896;-74
2023/06/28 11:02:00;;;;;;;1.00;0.75;;;;;;;23.18;52.41;97753.16;1702252;75;668951;-75
2023/06/28 11:04:30;;;;;;;1.50;0.70;;;;;;;22.50;53.09;97747.00;1709899;75;676506;-76
2023/06/28 11:07:23;;;;;;;1.35;0.90;;;;;;;21.91;52.62;97752.56;1702006;75;680996;-74
2023/06/28 11:10:17;;;;;;;0.70;0.50;;;;;;;23.03;53.03;97750.41;1699221;75;925444;-73
2023/06/28 11:12:50;;;;;;;0.60;0.50;;;;;;;22.31;52.65;97757.75;1702521;75;673918;-76
2023/06/28 11:15:32;;;;;;;0.70;0.50;;;;;;;23.17;50.26;97748.91;1709678;75;685216;-74
2023/06/28 11:18:13;;;;;;;0.60;0.50;;;;;;;23.43;49.59;97744.19;1702741;75;675482;-76
2023/06/28 11:20:55;;;;;;;0.40;0.30;;;;;;;23.39;48.60;97736.94;1702252;75;672735;-74
2023/06/28 11:23:32;;;;;;;1.40;0.60;;;;;;;23.04;47.02;97743.50;1710530;75;676454;-73
2023/06/28 11:26:08;;;;;;;1.30;0.50;;;;;;;23.48;45.86;97740.47;1702145;75;694515;-74
2023/06/28 11:28:39;;;;;;;0.70;0.50;;;;;;;23.90;47.25;97739.97;1710290;75;688680;-76
2023/06/28 11:31:21;;;;;;;0.55;0.50;;;;;;;24.96;46.24;97729.41;1701605;75;752221;-75
2023/06/28 11:33:54;;;;;;;0.50;0.40;;;;;;;24.54;45.22;97735.00;1699429;75;956397;-74
2023/06/28 11:36:27;;;;;;;1.20;0.70;;;;;;;23.65;44.17;97725.88;1710650;75;675792;-74
2023/06/28 11:38:58;;;;;;;0.55;0.45;;;;;;;23.17;44.29;97720.97;1701826;75;676494;-74